sensor_id;sensor_type;location;lat;lon;timestamp;temperature;humidity
11497;DHT22;5805;51.542;7.230;2023-10-08T00:01:30;20.10;99.90
11497;DHT22;5805;51.542;7.230;2023-10-08T00:03:55;20.10;99.90
11497;DHT22;5805;51.542;7.230;2023-10-08T00:06:22;20.10;99.90
11497;DHT22;5805;51.542;7.230;2023-10-08T00:08:49;20.10;99.90
11497;DHT22;5805;51.542;7.230;2023-10-08T00:11:15;20.10;99.90
11497;DHT22;5805;51.542;7.230;2023-10-08T00:13:41;20.10;99.90
11497;DHT22;5805;51.542;7.230;2023-10-08T00:16:07;20.10;99.90
11497;DHT22;5805;51.542;7.230;2023-10-08T00:18:33;20.10;99.90
11497;DHT22;5805;51.542;7.230;2023-10-08T00:20:59;20.00;99.90
11497;DHT22;5805;51.542;7.230;2023-10-08T00:23:26;20.00;99.90
11497;DHT22;5805;51.542;7.230;2023-10-08T00:25:52;20.00;99.90
11497;DHT22;5805;51.542;7.230;2023-10-08T00:28:17;20.00;99.90
11497;DHT22;5805;51.542;7.230;2023-10-08T00:30:43;20.00;99.90
11497;DHT22;5805;51.542;7.230;2023-10-08T00:33:09;20.00;99.90
11497;DHT22;5805;51.542;7.230;2023-10-08T00:35:38;20.20;99.90
11497;DHT22;5805;51.542;7.230;2023-10-08T00:38:04;19.90;99.90
11497;DHT22;5805;51.542;7.230;2023-10-08T00:40:37;19.90;99.90
11497;DHT22;5805;51.542;7.230;2023-10-08T00:43:03;20.00;99.90
11497;DHT22;5805;51.542;7.230;2023-10-08T00:45:28;19.90;99.90
11497;DHT22;5805;51.542;7.230;2023-10-08T00:47:55;19.90;99.90
11497;DHT22;5805;51.542;7.230;2023-10-08T00:50:20;19.90;99.90
11497;DHT22;5805;51.542;7.230;2023-10-08T00:52:46;19.90;99.90
11497;DHT22;5805;51.542;7.230;2023-10-08T00:55:12;19.90;99.90
11497;DHT22;5805;51.542;7.230;2023-10-08T00:57:40;19.90;99.90
11497;DHT22;5805;51.542;7.230;2023-10-08T01:00:06;19.90;99.90
11497;DHT22;5805;51.542;7.230;2023-10-08T01:02:32;19.90;99.90
11497;DHT22;5805;51.542;7.230;2023-10-08T01:04:58;19.80;99.90
11497;DHT22;5805;51.542;7.230;2023-10-08T01:07:25;19.80;99.90
11497;DHT22;5805;51.542;7.230;2023-10-08T01:09:52;19.90;99.90
11497;DHT22;5805;51.542;7.230;2023-10-08T01:12:19;19.80;99.90
11497;DHT22;5805;51.542;7.230;2023-10-08T01:14:46;19.80;99.90
11497;DHT22;5805;51.542;7.230;2023-10-08T01:17:13;19.80;99.90
11497;DHT22;5805;51.542;7.230;2023-10-08T01:19:39;19.80;99.90
11497;DHT22;5805;51.542;7.230;2023-10-08T01:22:06;19.80;99.90
11497;DHT22;5805;51.542;7.230;2023-10-08T01:24:32;19.80;99.90
11497;DHT22;5805;51.542;7.230;2023-10-08T01:26:57;19.80;99.90
11497;DHT22;5805;51.542;7.230;2023-10-08T01:29:23;19.80;99.90
11497;DHT22;5805;51.542;7.230;2023-10-08T01:31:48;19.80;99.90
11497;DHT22;5805;51.542;7.230;2023-10-08T01:34:14;19.80;99.90
11497;DHT22;5805;51.542;7.230;2023-10-08T01:36:40;19.80;99.90
11497;DHT22;5805;51.542;7.230;2023-10-08T01:39:07;19.80;99.90
11497;DHT22;5805;51.542;7.230;2023-10-08T01:41:33;19.70;99.90
11497;DHT22;5805;51.542;7.230;2023-10-08T01:43:58;19.70;99.90
11497;DHT22;5805;51.542;7.230;2023-10-08T01:46:24;19.80;99.90
11497;DHT22;5805;51.542;7.230;2023-10-08T01:48:50;19.70;99.90
11497;DHT22;5805;51.542;7.230;2023-10-08T01:51:16;19.70;99.90
11497;DHT22;5805;51.542;7.230;2023-10-08T01:53:42;19.70;99.90
11497;DHT22;5805;51.542;7.230;2023-10-08T01:56:09;19.70;99.90
11497;DHT22;5805;51.542;7.230;2023-10-08T01:58:34;19.80;99.90
11497;DHT22;5805;51.542;7.230;2023-10-08T02:01:00;19.80;99.90
11497;DHT22;5805;51.542;7.230;2023-10-08T02:03:26;19.80;99.90
11497;DHT22;5805;51.542;7.230;2023-10-08T02:05:52;19.80;99.90
11497;DHT22;5805;51.542;7.230;2023-10-08T02:08:18;19.80;99.90
11497;DHT22;5805;51.542;7.230;2023-10-08T02:10:44;19.80;99.90
11497;DHT22;5805;51.542;7.230;2023-10-08T02:13:11;19.80;99.90
11497;DHT22;5805;51.542;7.230;2023-10-08T02:15:43;19.80;99.90
11497;DHT22;5805;51.542;7.230;2023-10-08T02:18:09;19.80;99.90
11497;DHT22;5805;51.542;7.230;2023-10-08T02:20:34;19.80;99.90
11497;DHT22;5805;51.542;7.230;2023-10-08T02:23:00;19.80;99.90
11497;DHT22;5805;51.542;7.230;2023-10-08T02:25:26;19.80;99.90
11497;DHT22;5805;51.542;7.230;2023-10-08T02:27:52;19.80;99.90
11497;DHT22;5805;51.542;7.230;2023-10-08T02:30:19;19.80;99.90
11497;DHT22;5805;51.542;7.230;2023-10-08T02:32:44;19.70;99.90
11497;DHT22;5805;51.542;7.230;2023-10-08T02:35:10;19.70;99.90
11497;DHT22;5805;51.542;7.230;2023-10-08T02:37:36;19.70;99.90
11497;DHT22;5805;51.542;7.230;2023-10-08T02:40:02;19.60;99.90
11497;DHT22;5805;51.542;7.230;2023-10-08T02:42:28;19.60;99.90
11497;DHT22;5805;51.542;7.230;2023-10-08T02:44:54;19.60;99.90
11497;DHT22;5805;51.542;7.230;2023-10-08T02:47:21;19.60;99.90
11497;DHT22;5805;51.542;7.230;2023-10-08T02:49:46;19.60;99.90
11497;DHT22;5805;51.542;7.230;2023-10-08T02:52:12;19.60;99.90
11497;DHT22;5805;51.542;7.230;2023-10-08T02:54:38;19.60;99.90
11497;DHT22;5805;51.542;7.230;2023-10-08T02:57:04;19.60;99.90
11497;DHT22;5805;51.542;7.230;2023-10-08T02:59:30;19.60;99.90
11497;DHT22;5805;51.542;7.230;2023-10-08T03:01:56;19.60;99.90
11497;DHT22;5805;51.542;7.230;2023-10-08T03:04:23;19.50;99.90
11497;DHT22;5805;51.542;7.230;2023-10-08T03:06:49;19.60;99.90
11497;DHT22;5805;51.542;7.230;2023-10-08T03:09:15;19.60;99.90
11497;DHT22;5805;51.542;7.230;2023-10-08T03:11:41;19.60;99.90
11497;DHT22;5805;51.542;7.230;2023-10-08T03:14:06;19.60;99.90
11497;DHT22;5805;51.542;7.230;2023-10-08T03:16:32;19.60;99.90
11497;DHT22;5805;51.542;7.230;2023-10-08T03:18:58;19.60;99.90
11497;DHT22;5805;51.542;7.230;2023-10-08T03:21:25;19.60;99.90
11497;DHT22;5805;51.542;7.230;2023-10-08T03:23:51;19.70;99.90
11497;DHT22;5805;51.542;7.230;2023-10-08T03:26:17;19.70;99.90
11497;DHT22;5805;51.542;7.230;2023-10-08T03:28:43;19.60;99.90
11497;DHT22;5805;51.542;7.230;2023-10-08T03:31:08;19.60;99.90
11497;DHT22;5805;51.542;7.230;2023-10-08T03:33:35;19.60;99.90
11497;DHT22;5805;51.542;7.230;2023-10-08T03:36:02;19.50;99.90
11497;DHT22;5805;51.542;7.230;2023-10-08T03:38:29;19.50;99.90
11497;DHT22;5805;51.542;7.230;2023-10-08T03:40:55;19.50;99.90
11497;DHT22;5805;51.542;7.230;2023-10-08T03:43:21;19.50;99.90
11497;DHT22;5805;51.542;7.230;2023-10-08T03:45:46;19.50;99.90
11497;DHT22;5805;51.542;7.230;2023-10-08T03:48:12;19.40;99.90
11497;DHT22;5805;51.542;7.230;2023-10-08T03:50:38;19.40;99.90
11497;DHT22;5805;51.542;7.230;2023-10-08T03:53:03;19.40;99.90
11497;DHT22;5805;51.542;7.230;2023-10-08T03:55:31;19.40;99.90
11497;DHT22;5805;51.542;7.230;2023-10-08T03:57:56;19.40;99.90
11497;DHT22;5805;51.542;7.230;2023-10-08T04:00:23;19.40;99.90
11497;DHT22;5805;51.542;7.230;2023-10-08T04:02:49;19.40;99.90
11497;DHT22;5805;51.542;7.230;2023-10-08T04:05:14;19.30;99.90
11497;DHT22;5805;51.542;7.230;2023-10-08T04:07:40;19.30;99.90
11497;DHT22;5805;51.542;7.230;2023-10-08T04:10:07;19.30;99.90
11497;DHT22;5805;51.542;7.230;2023-10-08T04:12:34;19.30;99.90
11497;DHT22;5805;51.542;7.230;2023-10-08T04:15:00;19.30;99.90
11497;DHT22;5805;51.542;7.230;2023-10-08T04:17:26;19.30;99.90
11497;DHT22;5805;51.542;7.230;2023-10-08T04:19:51;19.30;99.90
11497;DHT22;5805;51.542;7.230;2023-10-08T04:22:17;19.30;99.90
11497;DHT22;5805;51.542;7.230;2023-10-08T04:24:43;19.30;99.90
11497;DHT22;5805;51.542;7.230;2023-10-08T04:27:08;19.30;99.90
11497;DHT22;5805;51.542;7.230;2023-10-08T04:29:36;19.30;99.90
11497;DHT22;5805;51.542;7.230;2023-10-08T04:32:01;19.30;99.90
11497;DHT22;5805;51.542;7.230;2023-10-08T04:34:28;19.30;99.90
11497;DHT22;5805;51.542;7.230;2023-10-08T04:36:53;19.30;99.90
11497;DHT22;5805;51.542;7.230;2023-10-08T04:39:19;19.20;99.90
11497;DHT22;5805;51.542;7.230;2023-10-08T04:41:45;19.30;99.90
11497;DHT22;5805;51.542;7.230;2023-10-08T04:44:11;19.20;99.90
11497;DHT22;5805;51.542;7.230;2023-10-08T04:46:38;19.30;99.90
11497;DHT22;5805;51.542;7.230;2023-10-08T04:49:04;19.20;99.90
11497;DHT22;5805;51.542;7.230;2023-10-08T04:51:29;19.20;99.90
11497;DHT22;5805;51.542;7.230;2023-10-08T04:53:55;19.30;99.90
11497;DHT22;5805;51.542;7.230;2023-10-08T04:56:21;19.20;99.90
11497;DHT22;5805;51.542;7.230;2023-10-08T04:58:47;19.20;99.90
11497;DHT22;5805;51.542;7.230;2023-10-08T05:01:13;19.20;99.90
11497;DHT22;5805;51.542;7.230;2023-10-08T05:03:40;19.10;99.90
11497;DHT22;5805;51.542;7.230;2023-10-08T05:06:06;19.10;99.90
11497;DHT22;5805;51.542;7.230;2023-10-08T05:08:32;19.10;99.90
11497;DHT22;5805;51.542;7.230;2023-10-08T05:10:57;19.10;99.90
11497;DHT22;5805;51.542;7.230;2023-10-08T05:13:23;19.10;99.90
11497;DHT22;5805;51.542;7.230;2023-10-08T05:15:49;19.10;99.90
11497;DHT22;5805;51.542;7.230;2023-10-08T05:18:14;19.10;99.90
11497;DHT22;5805;51.542;7.230;2023-10-08T05:20:42;19.10;99.90
11497;DHT22;5805;51.542;7.230;2023-10-08T05:23:08;19.10;99.90
11497;DHT22;5805;51.542;7.230;2023-10-08T05:25:34;19.10;99.90
11497;DHT22;5805;51.542;7.230;2023-10-08T05:28:06;19.10;99.90
11497;DHT22;5805;51.542;7.230;2023-10-08T05:30:32;19.20;99.90
11497;DHT22;5805;51.542;7.230;2023-10-08T05:32:58;19.10;99.90
11497;DHT22;5805;51.542;7.230;2023-10-08T05:37:51;19.10;99.90
11497;DHT22;5805;51.542;7.230;2023-10-08T05:40:17;19.10;99.90
11497;DHT22;5805;51.542;7.230;2023-10-08T05:42:43;19.00;99.90
11497;DHT22;5805;51.542;7.230;2023-10-08T05:45:09;19.00;99.90
11497;DHT22;5805;51.542;7.230;2023-10-08T05:47:34;19.00;99.90
11497;DHT22;5805;51.542;7.230;2023-10-08T05:50:01;19.00;99.90
11497;DHT22;5805;51.542;7.230;2023-10-08T05:52:26;19.00;99.90
11497;DHT22;5805;51.542;7.230;2023-10-08T05:54:53;19.00;99.90
11497;DHT22;5805;51.542;7.230;2023-10-08T05:57:19;19.00;99.90
11497;DHT22;5805;51.542;7.230;2023-10-08T05:59:46;19.00;99.90
11497;DHT22;5805;51.542;7.230;2023-10-08T06:02:12;19.00;99.90
11497;DHT22;5805;51.542;7.230;2023-10-08T06:04:37;19.00;99.90
11497;DHT22;5805;51.542;7.230;2023-10-08T06:07:03;19.00;99.90
11497;DHT22;5805;51.542;7.230;2023-10-08T06:09:29;19.00;99.90
11497;DHT22;5805;51.542;7.230;2023-10-08T06:11:56;19.00;99.90
11497;DHT22;5805;51.542;7.230;2023-10-08T06:14:22;19.00;99.90
11497;DHT22;5805;51.542;7.230;2023-10-08T06:16:47;19.00;99.90
11497;DHT22;5805;51.542;7.230;2023-10-08T06:19:13;19.00;99.90
11497;DHT22;5805;51.542;7.230;2023-10-08T06:21:41;19.00;99.90
11497;DHT22;5805;51.542;7.230;2023-10-08T06:24:08;19.00;99.90
11497;DHT22;5805;51.542;7.230;2023-10-08T06:26:36;19.00;99.90
11497;DHT22;5805;51.542;7.230;2023-10-08T06:29:03;19.00;99.90
11497;DHT22;5805;51.542;7.230;2023-10-08T06:31:29;18.90;99.90
11497;DHT22;5805;51.542;7.230;2023-10-08T06:33:55;18.90;99.90
11497;DHT22;5805;51.542;7.230;2023-10-08T06:36:20;18.90;99.90
11497;DHT22;5805;51.542;7.230;2023-10-08T06:38:46;18.90;99.90
11497;DHT22;5805;51.542;7.230;2023-10-08T06:41:12;18.90;99.90
11497;DHT22;5805;51.542;7.230;2023-10-08T06:43:38;19.00;99.90
11497;DHT22;5805;51.542;7.230;2023-10-08T06:46:06;18.90;99.90
11497;DHT22;5805;51.542;7.230;2023-10-08T06:48:31;19.00;99.90
11497;DHT22;5805;51.542;7.230;2023-10-08T06:50:57;19.00;99.90
11497;DHT22;5805;51.542;7.230;2023-10-08T06:53:23;19.00;99.90
11497;DHT22;5805;51.542;7.230;2023-10-08T06:55:49;18.90;99.90
11497;DHT22;5805;51.542;7.230;2023-10-08T06:58:15;18.90;99.90
11497;DHT22;5805;51.542;7.230;2023-10-08T07:00:41;19.00;99.90
11497;DHT22;5805;51.542;7.230;2023-10-08T07:03:08;18.90;99.90
11497;DHT22;5805;51.542;7.230;2023-10-08T07:05:34;18.90;99.90
11497;DHT22;5805;51.542;7.230;2023-10-08T07:07:59;18.90;99.90
11497;DHT22;5805;51.542;7.230;2023-10-08T07:10:25;19.00;99.90
11497;DHT22;5805;51.542;7.230;2023-10-08T07:12:51;19.00;99.90
11497;DHT22;5805;51.542;7.230;2023-10-08T07:15:16;19.00;99.90
11497;DHT22;5805;51.542;7.230;2023-10-08T07:17:42;18.90;99.90
11497;DHT22;5805;51.542;7.230;2023-10-08T07:20:10;18.60;99.90
11497;DHT22;5805;51.542;7.230;2023-10-08T07:22:36;18.20;99.90
11497;DHT22;5805;51.542;7.230;2023-10-08T07:25:01;17.70;99.90
11497;DHT22;5805;51.542;7.230;2023-10-08T07:27:27;17.40;99.90
11497;DHT22;5805;51.542;7.230;2023-10-08T07:29:52;17.00;99.90
11497;DHT22;5805;51.542;7.230;2023-10-08T07:32:18;16.70;99.90
11497;DHT22;5805;51.542;7.230;2023-10-08T07:34:44;16.50;99.90
11497;DHT22;5805;51.542;7.230;2023-10-08T07:37:11;16.60;99.90
11497;DHT22;5805;51.542;7.230;2023-10-08T07:39:37;16.40;99.90
11497;DHT22;5805;51.542;7.230;2023-10-08T07:42:04;16.40;99.90
11497;DHT22;5805;51.542;7.230;2023-10-08T07:44:30;16.40;99.90
11497;DHT22;5805;51.542;7.230;2023-10-08T07:46:56;16.50;99.90
11497;DHT22;5805;51.542;7.230;2023-10-08T07:49:22;16.60;99.90
11497;DHT22;5805;51.542;7.230;2023-10-08T07:51:48;16.80;99.90
11497;DHT22;5805;51.542;7.230;2023-10-08T07:54:15;16.90;99.90
11497;DHT22;5805;51.542;7.230;2023-10-08T07:56:41;17.00;99.90
11497;DHT22;5805;51.542;7.230;2023-10-08T07:59:07;17.20;99.90
11497;DHT22;5805;51.542;7.230;2023-10-08T08:01:33;17.30;99.90
11497;DHT22;5805;51.542;7.230;2023-10-08T08:03:59;17.30;99.90
11497;DHT22;5805;51.542;7.230;2023-10-08T08:06:25;17.50;99.90
11497;DHT22;5805;51.542;7.230;2023-10-08T08:08:51;17.50;99.90
11497;DHT22;5805;51.542;7.230;2023-10-08T08:11:18;17.60;99.90
11497;DHT22;5805;51.542;7.230;2023-10-08T08:13:44;17.70;99.90
11497;DHT22;5805;51.542;7.230;2023-10-08T08:16:11;17.60;99.90
11497;DHT22;5805;51.542;7.230;2023-10-08T08:18:37;17.60;99.90
11497;DHT22;5805;51.542;7.230;2023-10-08T08:21:03;17.60;99.90
11497;DHT22;5805;51.542;7.230;2023-10-08T08:23:29;17.50;99.90
11497;DHT22;5805;51.542;7.230;2023-10-08T08:25:55;17.50;99.90
11497;DHT22;5805;51.542;7.230;2023-10-08T08:28:23;17.50;99.90
11497;DHT22;5805;51.542;7.230;2023-10-08T08:30:48;17.60;99.90
11497;DHT22;5805;51.542;7.230;2023-10-08T08:33:14;17.50;99.90
11497;DHT22;5805;51.542;7.230;2023-10-08T08:35:40;17.50;99.90
11497;DHT22;5805;51.542;7.230;2023-10-08T08:38:05;17.50;99.90
11497;DHT22;5805;51.542;7.230;2023-10-08T08:40:31;17.50;99.90
11497;DHT22;5805;51.542;7.230;2023-10-08T08:42:57;17.50;99.90
11497;DHT22;5805;51.542;7.230;2023-10-08T08:45:24;17.30;99.90
11497;DHT22;5805;51.542;7.230;2023-10-08T08:47:50;17.20;99.90
11497;DHT22;5805;51.542;7.230;2023-10-08T08:50:16;17.20;99.90
11497;DHT22;5805;51.542;7.230;2023-10-08T08:52:42;17.10;99.90
11497;DHT22;5805;51.542;7.230;2023-10-08T08:55:08;17.00;99.90
11497;DHT22;5805;51.542;7.230;2023-10-08T08:57:34;16.70;99.90
11497;DHT22;5805;51.542;7.230;2023-10-08T09:00:01;16.60;99.90
11497;DHT22;5805;51.542;7.230;2023-10-08T09:02:29;16.70;99.90
11497;DHT22;5805;51.542;7.230;2023-10-08T09:04:54;16.70;99.90
11497;DHT22;5805;51.542;7.230;2023-10-08T09:07:20;16.70;99.90
11497;DHT22;5805;51.542;7.230;2023-10-08T09:09:46;16.60;99.90
11497;DHT22;5805;51.542;7.230;2023-10-08T09:12:12;16.70;99.90
11497;DHT22;5805;51.542;7.230;2023-10-08T09:14:38;16.80;99.90
11497;DHT22;5805;51.542;7.230;2023-10-08T09:17:04;17.00;99.90
11497;DHT22;5805;51.542;7.230;2023-10-08T09:19:35;17.00;99.90
11497;DHT22;5805;51.542;7.230;2023-10-08T09:22:02;16.90;99.90
11497;DHT22;5805;51.542;7.230;2023-10-08T09:24:28;16.70;99.90
11497;DHT22;5805;51.542;7.230;2023-10-08T09:26:54;16.60;99.90
11497;DHT22;5805;51.542;7.230;2023-10-08T09:29:22;16.50;99.90
11497;DHT22;5805;51.542;7.230;2023-10-08T09:31:52;16.50;99.90
11497;DHT22;5805;51.542;7.230;2023-10-08T09:34:18;16.60;99.90
11497;DHT22;5805;51.542;7.230;2023-10-08T09:36:45;16.80;99.90
11497;DHT22;5805;51.542;7.230;2023-10-08T09:39:12;16.90;99.90
11497;DHT22;5805;51.542;7.230;2023-10-08T09:41:40;17.00;99.90
11497;DHT22;5805;51.542;7.230;2023-10-08T09:44:07;17.00;99.90
11497;DHT22;5805;51.542;7.230;2023-10-08T09:46:34;17.10;99.90
11497;DHT22;5805;51.542;7.230;2023-10-08T09:49:01;17.20;99.90
11497;DHT22;5805;51.542;7.230;2023-10-08T09:51:29;17.30;99.90
11497;DHT22;5805;51.542;7.230;2023-10-08T09:54:03;17.30;99.90
11497;DHT22;5805;51.542;7.230;2023-10-08T09:56:31;17.50;99.90
11497;DHT22;5805;51.542;7.230;2023-10-08T09:58:57;17.60;99.90
11497;DHT22;5805;51.542;7.230;2023-10-08T10:01:24;17.70;99.90
11497;DHT22;5805;51.542;7.230;2023-10-08T10:03:51;17.90;99.90
11497;DHT22;5805;51.542;7.230;2023-10-08T10:06:18;17.90;99.90
11497;DHT22;5805;51.542;7.230;2023-10-08T10:08:44;18.00;99.90
11497;DHT22;5805;51.542;7.230;2023-10-08T10:11:11;18.10;99.90
11497;DHT22;5805;51.542;7.230;2023-10-08T10:13:42;18.10;99.90
11497;DHT22;5805;51.542;7.230;2023-10-08T10:16:08;18.20;99.90
11497;DHT22;5805;51.542;7.230;2023-10-08T10:18:34;18.20;99.90
11497;DHT22;5805;51.542;7.230;2023-10-08T10:21:24;18.20;99.90
11497;DHT22;5805;51.542;7.230;2023-10-08T10:23:50;18.10;99.90
11497;DHT22;5805;51.542;7.230;2023-10-08T10:26:25;18.10;99.90
11497;DHT22;5805;51.542;7.230;2023-10-08T10:29:22;18.10;99.90
11497;DHT22;5805;51.542;7.230;2023-10-08T10:31:49;18.20;99.90
11497;DHT22;5805;51.542;7.230;2023-10-08T10:34:17;18.20;99.90
11497;DHT22;5805;51.542;7.230;2023-10-08T10:36:44;18.10;99.90
11497;DHT22;5805;51.542;7.230;2023-10-08T10:39:10;18.20;99.90
11497;DHT22;5805;51.542;7.230;2023-10-08T10:41:37;18.30;99.90
11497;DHT22;5805;51.542;7.230;2023-10-08T10:44:04;18.20;99.90
11497;DHT22;5805;51.542;7.230;2023-10-08T10:46:29;18.30;99.90
11497;DHT22;5805;51.542;7.230;2023-10-08T10:48:55;18.30;99.90
11497;DHT22;5805;51.542;7.230;2023-10-08T10:51:21;18.40;99.90
11497;DHT22;5805;51.542;7.230;2023-10-08T10:53:46;18.50;99.90
11497;DHT22;5805;51.542;7.230;2023-10-08T10:56:13;18.60;99.90
11497;DHT22;5805;51.542;7.230;2023-10-08T10:58:42;18.70;99.90
11497;DHT22;5805;51.542;7.230;2023-10-08T11:01:07;18.70;99.90
11497;DHT22;5805;51.542;7.230;2023-10-08T11:03:33;18.80;99.90
11497;DHT22;5805;51.542;7.230;2023-10-08T11:06:00;18.90;99.90
11497;DHT22;5805;51.542;7.230;2023-10-08T11:08:26;19.10;99.90
11497;DHT22;5805;51.542;7.230;2023-10-08T11:10:53;19.20;99.90
11497;DHT22;5805;51.542;7.230;2023-10-08T11:13:19;19.40;99.90
11497;DHT22;5805;51.542;7.230;2023-10-08T11:15:49;19.50;99.90
11497;DHT22;5805;51.542;7.230;2023-10-08T11:18:16;19.50;99.90
11497;DHT22;5805;51.542;7.230;2023-10-08T11:20:43;19.50;99.90
11497;DHT22;5805;51.542;7.230;2023-10-08T11:23:09;19.50;99.90
11497;DHT22;5805;51.542;7.230;2023-10-08T11:25:35;19.50;99.90
11497;DHT22;5805;51.542;7.230;2023-10-08T11:28:01;19.50;99.90
11497;DHT22;5805;51.542;7.230;2023-10-08T11:30:26;19.50;99.90
11497;DHT22;5805;51.542;7.230;2023-10-08T11:32:54;19.40;99.90
11497;DHT22;5805;51.542;7.230;2023-10-08T11:35:20;19.20;99.90
11497;DHT22;5805;51.542;7.230;2023-10-08T11:37:46;19.00;99.90
11497;DHT22;5805;51.542;7.230;2023-10-08T11:40:21;19.00;99.90
11497;DHT22;5805;51.542;7.230;2023-10-08T11:42:47;19.00;99.90
11497;DHT22;5805;51.542;7.230;2023-10-08T11:45:13;19.00;99.90
11497;DHT22;5805;51.542;7.230;2023-10-08T11:47:39;18.90;99.90
11497;DHT22;5805;51.542;7.230;2023-10-08T11:50:07;19.00;99.90
11497;DHT22;5805;51.542;7.230;2023-10-08T11:52:33;19.20;99.90
11497;DHT22;5805;51.542;7.230;2023-10-08T11:54:59;19.30;99.90
11497;DHT22;5805;51.542;7.230;2023-10-08T11:57:25;19.40;99.90
11497;DHT22;5805;51.542;7.230;2023-10-08T11:59:51;19.50;99.90
11497;DHT22;5805;51.542;7.230;2023-10-08T12:02:16;19.50;99.90
11497;DHT22;5805;51.542;7.230;2023-10-08T12:04:42;19.40;99.90
11497;DHT22;5805;51.542;7.230;2023-10-08T12:07:09;19.40;99.90
11497;DHT22;5805;51.542;7.230;2023-10-08T12:09:35;19.40;99.90
11497;DHT22;5805;51.542;7.230;2023-10-08T12:12:01;19.20;99.90
11497;DHT22;5805;51.542;7.230;2023-10-08T12:14:26;18.90;99.90
11497;DHT22;5805;51.542;7.230;2023-10-08T12:16:52;18.80;99.90
11497;DHT22;5805;51.542;7.230;2023-10-08T12:19:18;18.90;99.90
11497;DHT22;5805;51.542;7.230;2023-10-08T12:21:44;19.00;99.90
11497;DHT22;5805;51.542;7.230;2023-10-08T12:24:12;19.20;99.90
11497;DHT22;5805;51.542;7.230;2023-10-08T12:26:37;19.30;99.90
11497;DHT22;5805;51.542;7.230;2023-10-08T12:29:03;19.30;99.90
11497;DHT22;5805;51.542;7.230;2023-10-08T12:31:29;19.50;99.90
11497;DHT22;5805;51.542;7.230;2023-10-08T12:33:55;19.70;99.90
11497;DHT22;5805;51.542;7.230;2023-10-08T12:36:21;19.80;99.90
11497;DHT22;5805;51.542;7.230;2023-10-08T12:38:47;19.80;99.90
11497;DHT22;5805;51.542;7.230;2023-10-08T12:41:14;19.70;99.90
11497;DHT22;5805;51.542;7.230;2023-10-08T12:43:41;19.50;99.90
11497;DHT22;5805;51.542;7.230;2023-10-08T12:46:07;19.40;99.90
11497;DHT22;5805;51.542;7.230;2023-10-08T12:48:33;19.40;99.90
11497;DHT22;5805;51.542;7.230;2023-10-08T12:50:58;19.50;99.90
11497;DHT22;5805;51.542;7.230;2023-10-08T12:53:26;19.30;99.90
11497;DHT22;5805;51.542;7.230;2023-10-08T12:55:52;19.30;99.90
11497;DHT22;5805;51.542;7.230;2023-10-08T12:58:19;19.40;99.90
11497;DHT22;5805;51.542;7.230;2023-10-08T13:00:45;19.40;99.90
11497;DHT22;5805;51.542;7.230;2023-10-08T13:03:11;19.40;99.90
11497;DHT22;5805;51.542;7.230;2023-10-08T13:05:37;19.50;99.90
11497;DHT22;5805;51.542;7.230;2023-10-08T13:08:03;19.60;99.90
11497;DHT22;5805;51.542;7.230;2023-10-08T13:10:29;19.70;99.90
11497;DHT22;5805;51.542;7.230;2023-10-08T13:12:55;19.70;99.90
11497;DHT22;5805;51.542;7.230;2023-10-08T13:15:22;19.80;99.90
11497;DHT22;5805;51.542;7.230;2023-10-08T13:17:48;19.80;99.90
11497;DHT22;5805;51.542;7.230;2023-10-08T13:20:13;19.90;99.90
11497;DHT22;5805;51.542;7.230;2023-10-08T13:22:39;19.90;99.90
11497;DHT22;5805;51.542;7.230;2023-10-08T13:25:05;20.10;99.90
11497;DHT22;5805;51.542;7.230;2023-10-08T13:27:31;20.30;99.90
11497;DHT22;5805;51.542;7.230;2023-10-08T13:29:57;20.40;99.90
11497;DHT22;5805;51.542;7.230;2023-10-08T13:32:24;20.50;99.90
11497;DHT22;5805;51.542;7.230;2023-10-08T13:34:50;20.50;99.90
11497;DHT22;5805;51.542;7.230;2023-10-08T13:37:15;20.50;99.90
11497;DHT22;5805;51.542;7.230;2023-10-08T13:39:41;20.40;99.90
11497;DHT22;5805;51.542;7.230;2023-10-08T13:42:07;20.40;99.90
11497;DHT22;5805;51.542;7.230;2023-10-08T13:44:33;20.40;99.90
11497;DHT22;5805;51.542;7.230;2023-10-08T13:46:58;20.40;99.90
11497;DHT22;5805;51.542;7.230;2023-10-08T13:49:25;20.40;99.90
11497;DHT22;5805;51.542;7.230;2023-10-08T13:51:51;20.40;99.90
11497;DHT22;5805;51.542;7.230;2023-10-08T13:54:17;20.40;99.90
11497;DHT22;5805;51.542;7.230;2023-10-08T13:56:43;20.40;99.90
11497;DHT22;5805;51.542;7.230;2023-10-08T13:59:08;20.40;99.90
11497;DHT22;5805;51.542;7.230;2023-10-08T14:01:34;20.30;99.90
11497;DHT22;5805;51.542;7.230;2023-10-08T14:04:00;20.10;99.90
11497;DHT22;5805;51.542;7.230;2023-10-08T14:06:27;20.00;99.90
11497;DHT22;5805;51.542;7.230;2023-10-08T14:08:53;19.90;99.90
11497;DHT22;5805;51.542;7.230;2023-10-08T14:11:19;19.90;99.90
11497;DHT22;5805;51.542;7.230;2023-10-08T14:13:45;19.90;99.90
11497;DHT22;5805;51.542;7.230;2023-10-08T14:16:10;19.70;99.90
11497;DHT22;5805;51.542;7.230;2023-10-08T14:18:36;19.60;99.90
11497;DHT22;5805;51.542;7.230;2023-10-08T14:21:02;19.50;99.90
11497;DHT22;5805;51.542;7.230;2023-10-08T14:23:29;19.50;99.90
11497;DHT22;5805;51.542;7.230;2023-10-08T14:25:55;19.50;99.90
11497;DHT22;5805;51.542;7.230;2023-10-08T14:28:21;19.60;99.90
11497;DHT22;5805;51.542;7.230;2023-10-08T14:30:47;19.60;99.90
11497;DHT22;5805;51.542;7.230;2023-10-08T14:33:13;19.50;99.90
11497;DHT22;5805;51.542;7.230;2023-10-08T14:35:39;19.50;99.90
11497;DHT22;5805;51.542;7.230;2023-10-08T14:38:04;19.40;99.90
11497;DHT22;5805;51.542;7.230;2023-10-08T14:40:31;19.30;99.90
11497;DHT22;5805;51.542;7.230;2023-10-08T14:42:57;19.40;99.90
11497;DHT22;5805;51.542;7.230;2023-10-08T14:45:23;19.20;99.90
11497;DHT22;5805;51.542;7.230;2023-10-08T14:47:49;19.10;99.90
11497;DHT22;5805;51.542;7.230;2023-10-08T14:50:15;19.00;99.90
11497;DHT22;5805;51.542;7.230;2023-10-08T14:52:41;19.00;99.90
11497;DHT22;5805;51.542;7.230;2023-10-08T14:55:07;18.90;99.90
11497;DHT22;5805;51.542;7.230;2023-10-08T14:57:34;18.90;99.90
11497;DHT22;5805;51.542;7.230;2023-10-08T15:00:00;18.90;99.90
11497;DHT22;5805;51.542;7.230;2023-10-08T15:02:25;18.90;99.90
11497;DHT22;5805;51.542;7.230;2023-10-08T15:04:51;18.70;99.90
11497;DHT22;5805;51.542;7.230;2023-10-08T15:07:17;18.60;99.90
11497;DHT22;5805;51.542;7.230;2023-10-08T15:09:42;18.70;99.90
11497;DHT22;5805;51.542;7.230;2023-10-08T15:12:08;18.70;99.90
11497;DHT22;5805;51.542;7.230;2023-10-08T15:14:35;18.70;99.90
11497;DHT22;5805;51.542;7.230;2023-10-08T15:17:01;18.70;99.90
11497;DHT22;5805;51.542;7.230;2023-10-08T15:19:27;18.70;99.90
11497;DHT22;5805;51.542;7.230;2023-10-08T15:21:52;18.60;99.90
11497;DHT22;5805;51.542;7.230;2023-10-08T15:24:19;18.60;99.90
11497;DHT22;5805;51.542;7.230;2023-10-08T15:26:44;18.60;99.90
11497;DHT22;5805;51.542;7.230;2023-10-08T15:29:10;18.70;99.90
11497;DHT22;5805;51.542;7.230;2023-10-08T15:31:37;18.70;99.90
11497;DHT22;5805;51.542;7.230;2023-10-08T15:34:03;18.80;99.90
11497;DHT22;5805;51.542;7.230;2023-10-08T15:36:29;18.80;99.90
11497;DHT22;5805;51.542;7.230;2023-10-08T15:38:55;18.80;99.90
11497;DHT22;5805;51.542;7.230;2023-10-08T15:41:20;18.70;99.90